createdAt,value
2018-04-13T00:00:14.629Z,12.70
2018-04-13T00:00:46.278Z,12.70
2018-04-13T00:01:17.928Z,12.90
2018-04-13T00:01:49.575Z,12.70
2018-04-13T00:02:21.224Z,12.80
2018-04-13T00:02:52.849Z,12.70
2018-04-13T00:03:24.477Z,12.70
2018-04-13T00:03:56.155Z,12.80
2018-04-13T00:04:27.808Z,12.80
2018-04-13T00:04:59.438Z,12.80
2018-04-13T00:05:31.077Z,12.80
2018-04-13T00:06:02.736Z,12.80
2018-04-13T00:06:34.408Z,12.80
2018-04-13T00:07:06.049Z,12.80
2018-04-13T00:07:37.687Z,12.90
2018-04-13T00:08:09.347Z,12.80
2018-04-13T00:08:40.998Z,12.80
2018-04-13T00:09:12.640Z,12.80
2018-04-13T00:09:44.275Z,12.80
2018-04-13T00:10:15.953Z,12.90
2018-04-13T00:10:47.625Z,12.90
2018-04-13T00:11:19.267Z,12.90
2018-04-13T00:11:50.902Z,12.90
2018-04-13T00:12:22.555Z,12.80
2018-04-13T00:12:54.195Z,12.90
2018-04-13T00:13:25.831Z,12.80
2018-04-13T00:13:57.484Z,12.90
2018-04-13T00:14:29.130Z,12.80
2018-04-13T00:15:00.795Z,12.80
2018-04-13T00:15:32.415Z,12.80
2018-04-13T00:16:04.043Z,12.80
2018-04-13T00:16:35.779Z,12.80
2018-04-13T00:17:07.411Z,12.80
2018-04-13T00:17:39.092Z,12.80
2018-04-13T00:18:10.728Z,12.80
2018-04-13T00:18:42.355Z,12.80
2018-04-13T00:19:13.995Z,12.80
2018-04-13T00:19:45.658Z,12.80
2018-04-13T00:20:17.307Z,12.80
2018-04-13T00:20:48.968Z,12.80
2018-04-13T00:21:20.602Z,12.80
2018-04-13T00:21:52.240Z,12.80
2018-04-13T00:22:23.916Z,12.90
2018-04-13T00:22:55.536Z,12.90
2018-04-13T00:23:27.186Z,12.80
2018-04-13T00:23:58.826Z,12.80
2018-04-13T00:24:30.464Z,12.90
2018-04-13T00:25:02.140Z,12.90
2018-04-13T00:25:33.756Z,12.80
2018-04-13T00:26:05.415Z,12.90
2018-04-13T00:26:37.046Z,12.90
2018-04-13T00:27:08.666Z,12.90
2018-04-13T00:27:40.281Z,12.90
2018-04-13T00:28:11.926Z,12.80
2018-04-13T00:28:43.556Z,12.90
2018-04-13T00:29:15.193Z,12.90
2018-04-13T00:29:46.828Z,12.90
2018-04-13T00:30:18.487Z,12.90
2018-04-13T00:30:50.108Z,12.90
2018-04-13T00:31:21.736Z,12.90
2018-04-13T00:31:53.356Z,12.90
2018-04-13T00:32:24.997Z,12.80
2018-04-13T00:32:56.635Z,12.90
2018-04-13T00:33:28.300Z,12.90
2018-04-13T00:33:59.922Z,12.90
2018-04-13T00:34:31.576Z,12.90
2018-04-13T00:35:03.248Z,12.90
2018-04-13T00:35:34.893Z,12.90
2018-04-13T00:36:06.534Z,13.00
2018-04-13T00:36:38.150Z,12.90
2018-04-13T00:37:09.778Z,12.90
2018-04-13T00:37:41.413Z,12.90
2018-04-13T00:38:13.052Z,12.90
2018-04-13T00:38:44.738Z,13.00
2018-04-13T00:39:16.344Z,13.00
2018-04-13T00:39:47.998Z,13.00
2018-04-13T00:40:19.640Z,13.00
2018-04-13T00:40:51.306Z,13.00
2018-04-13T00:41:22.918Z,13.00
2018-04-13T00:41:54.549Z,13.00
2018-04-13T00:42:26.182Z,13.00
2018-04-13T00:42:57.853Z,13.10
2018-04-13T00:43:29.463Z,13.10
2018-04-13T00:44:01.093Z,13.10
2018-04-13T00:44:32.736Z,13.10
2018-04-13T00:45:04.390Z,13.10
2018-04-13T00:45:36.099Z,13.10
2018-04-13T00:46:07.726Z,13.10
2018-04-13T00:46:39.380Z,13.10
2018-04-13T00:47:10.988Z,13.10
2018-04-13T00:47:42.623Z,13.10
2018-04-13T00:48:14.286Z,13.10
2018-04-13T00:48:45.930Z,13.10
2018-04-13T00:49:17.590Z,13.20
2018-04-13T00:49:49.256Z,13.20
2018-04-13T00:50:20.901Z,13.20
2018-04-13T00:50:52.541Z,13.10
2018-04-13T00:51:24.196Z,13.10
2018-04-13T00:51:55.825Z,13.10
2018-04-13T00:52:27.454Z,13.20
2018-04-13T00:53:17.701Z,13.00
2018-04-13T00:53:49.372Z,13.20
2018-04-13T00:54:20.998Z,13.10
2018-04-13T00:54:52.642Z,13.10
2018-04-13T00:55:24.296Z,13.10
2018-04-13T00:55:55.970Z,13.10
2018-04-13T00:56:27.616Z,13.10
2018-04-13T00:56:59.242Z,13.10
2018-04-13T00:57:30.889Z,13.10
2018-04-13T00:58:02.546Z,13.10
2018-04-13T00:58:34.169Z,13.10
2018-04-13T00:59:05.824Z,13.10
2018-04-13T00:59:37.438Z,13.10
2018-04-13T01:00:09.074Z,13.10
2018-04-13T01:00:40.772Z,13.10
2018-04-13T01:01:12.403Z,13.10
2018-04-13T01:01:44.049Z,13.10
2018-04-13T01:02:15.757Z,13.10
2018-04-13T01:02:47.433Z,13.10
2018-04-13T01:03:19.070Z,13.10
2018-04-13T01:03:50.731Z,13.10
2018-04-13T01:04:22.419Z,13.10
2018-04-13T01:04:54.052Z,13.10
2018-04-13T01:05:25.707Z,13.10
2018-04-13T01:05:57.335Z,13.10
2018-04-13T01:06:28.999Z,13.10
2018-04-13T01:07:00.626Z,13.10
2018-04-13T01:07:32.267Z,13.10
2018-04-13T01:08:03.938Z,13.10
2018-04-13T01:08:35.621Z,13.10
2018-04-13T01:09:07.258Z,13.10
2018-04-13T01:09:38.919Z,13.10
2018-04-13T01:10:10.579Z,13.10
2018-04-13T01:10:42.223Z,13.10
2018-04-13T01:11:13.874Z,13.20
2018-04-13T01:11:45.513Z,13.10
2018-04-13T01:12:17.142Z,13.10
2018-04-13T01:12:48.776Z,13.10
2018-04-13T01:13:20.397Z,13.10
2018-04-13T01:13:52.016Z,13.10
2018-04-13T01:14:23.753Z,13.20
2018-04-13T01:14:55.388Z,13.10
2018-04-13T01:15:27.030Z,13.10
2018-04-13T01:15:58.671Z,13.10
2018-04-13T01:16:30.353Z,13.10
2018-04-13T01:17:01.984Z,13.10
2018-04-13T01:17:33.604Z,13.20
2018-04-13T01:18:05.280Z,13.20
2018-04-13T01:18:36.907Z,13.20
2018-04-13T01:19:08.553Z,13.20
2018-04-13T01:19:40.195Z,13.20
2018-04-13T01:20:11.843Z,13.20
2018-04-13T01:20:43.497Z,13.20
2018-04-13T01:21:15.147Z,13.20
2018-04-13T01:21:46.804Z,13.30
2018-04-13T01:22:18.435Z,13.20
2018-04-13T01:22:50.091Z,13.20
2018-04-13T01:23:21.763Z,13.30
2018-04-13T01:23:53.413Z,13.20
2018-04-13T01:24:25.068Z,13.30
2018-04-13T01:24:56.749Z,13.30
2018-04-13T01:25:28.380Z,13.30
2018-04-13T01:26:00.025Z,13.40
2018-04-13T01:26:31.650Z,13.30
2018-04-13T01:27:03.287Z,13.30
2018-04-13T01:27:34.923Z,13.30
2018-04-13T01:28:06.556Z,13.30
2018-04-13T01:28:38.176Z,13.40
2018-04-13T01:29:09.816Z,13.40
2018-04-13T01:29:41.446Z,13.40
2018-04-13T01:30:13.099Z,13.40
2018-04-13T01:30:44.761Z,13.40
2018-04-13T01:31:16.396Z,13.40
2018-04-13T01:31:48.020Z,13.40
2018-04-13T01:32:19.678Z,13.50
2018-04-13T01:32:51.296Z,13.40
2018-04-13T01:33:22.948Z,13.50
2018-04-13T01:33:54.587Z,13.40
2018-04-13T01:34:26.228Z,13.40
2018-04-13T01:34:57.848Z,13.40
2018-04-13T01:35:29.480Z,13.50
2018-04-13T01:36:01.112Z,13.50
2018-04-13T01:36:32.736Z,13.40
2018-04-13T01:37:04.371Z,13.50
2018-04-13T01:37:36.027Z,13.50
2018-04-13T01:38:07.647Z,13.50
2018-04-13T01:38:39.270Z,13.50
2018-04-13T01:39:10.918Z,13.50
2018-04-13T01:39:42.548Z,13.50
2018-04-13T01:40:14.171Z,13.50
2018-04-13T01:40:45.807Z,13.50
2018-04-13T01:41:17.428Z,13.50
2018-04-13T01:41:49.062Z,13.50
2018-04-13T01:42:20.703Z,13.50
2018-04-13T01:42:52.332Z,13.70
2018-04-13T01:43:23.963Z,13.60
2018-04-13T01:43:55.594Z,13.50
2018-04-13T01:44:27.254Z,13.60
2018-04-13T01:44:58.913Z,13.60
2018-04-13T01:45:30.559Z,13.60
2018-04-13T01:46:02.233Z,13.60
2018-04-13T01:46:33.881Z,13.60
2018-04-13T01:47:05.514Z,13.60
2018-04-13T01:47:37.146Z,13.60
2018-04-13T01:48:08.779Z,13.50
2018-04-13T01:48:40.428Z,13.50
2018-04-13T01:49:12.047Z,13.60
2018-04-13T01:49:43.672Z,13.60
2018-04-13T01:50:15.300Z,13.60
2018-04-13T01:50:46.939Z,13.70
2018-04-13T01:51:18.564Z,13.60
2018-04-13T01:51:50.232Z,13.60
2018-04-13T01:52:21.876Z,13.60
2018-04-13T01:52:53.529Z,13.60
2018-04-13T01:53:25.189Z,13.60
2018-04-13T01:53:56.826Z,13.70
2018-04-13T01:54:28.480Z,13.60
2018-04-13T01:55:00.120Z,13.70
2018-04-13T01:55:31.759Z,13.60
2018-04-13T01:56:03.445Z,13.60
2018-04-13T01:56:35.071Z,13.60
2018-04-13T01:57:06.726Z,13.50
2018-04-13T01:57:38.372Z,13.60
2018-04-13T01:58:10.011Z,13.60
2018-04-13T01:58:41.652Z,13.50
2018-04-13T01:59:13.301Z,13.60
2018-04-13T01:59:44.938Z,13.60
2018-04-13T02:00:16.606Z,13.60
2018-04-13T02:00:48.222Z,13.70
2018-04-13T02:01:19.861Z,13.60
2018-04-13T02:01:51.504Z,13.60
2018-04-13T02:02:23.202Z,13.60
2018-04-13T02:02:54.862Z,13.70
2018-04-13T02:03:26.508Z,13.70
2018-04-13T02:03:58.159Z,13.70
2018-04-13T02:04:29.790Z,13.70
2018-04-13T02:05:01.414Z,13.70
2018-04-13T02:05:33.047Z,13.70
2018-04-13T02:06:04.716Z,13.70
2018-04-13T02:06:36.378Z,13.70
2018-04-13T02:07:08.053Z,13.70
2018-04-13T02:07:39.696Z,13.70
2018-04-13T02:08:11.343Z,13.70
2018-04-13T02:08:42.968Z,13.80
2018-04-13T02:09:14.608Z,13.80
2018-04-13T02:09:46.268Z,13.70
2018-04-13T02:10:17.915Z,13.70
2018-04-13T02:10:49.582Z,13.80
2018-04-13T02:11:21.224Z,13.80
2018-04-13T02:11:52.854Z,13.80
2018-04-13T02:12:24.520Z,13.80
2018-04-13T02:12:56.172Z,13.80
2018-04-13T02:13:27.777Z,13.80
2018-04-13T02:13:59.430Z,13.80
2018-04-13T02:14:31.082Z,13.90
2018-04-13T02:15:02.782Z,13.80
2018-04-13T02:15:34.423Z,13.80
2018-04-13T02:16:06.070Z,13.80
2018-04-13T02:16:37.747Z,13.90
2018-04-13T02:17:09.417Z,13.80
2018-04-13T02:17:41.086Z,13.80
2018-04-13T02:18:12.706Z,13.80
2018-04-13T02:18:44.334Z,13.80
2018-04-13T02:19:15.938Z,13.80
2018-04-13T02:19:47.590Z,13.80
2018-04-13T02:20:19.241Z,13.90
2018-04-13T02:20:50.904Z,13.90
2018-04-13T02:21:22.549Z,13.80
2018-04-13T02:21:54.165Z,13.90
2018-04-13T02:22:25.839Z,13.90
2018-04-13T02:22:57.490Z,13.80
2018-04-13T02:23:29.122Z,13.90
2018-04-13T02:24:00.755Z,13.80
2018-04-13T02:24:32.421Z,13.80
2018-04-13T02:25:04.344Z,13.80
2018-04-13T02:25:36.281Z,13.70
2018-04-13T02:26:07.899Z,13.70
2018-04-13T02:26:39.555Z,13.70
2018-04-13T02:27:11.187Z,13.70
2018-04-13T02:27:42.823Z,13.70
2018-04-13T02:28:14.452Z,13.60
2018-04-13T02:28:46.079Z,13.60
2018-04-13T02:29:17.691Z,13.50
2018-04-13T02:29:49.353Z,13.50
2018-04-13T02:30:21.005Z,13.40
2018-04-13T02:30:52.641Z,13.40
2018-04-13T02:31:24.269Z,13.40
2018-04-13T02:31:55.893Z,13.40
2018-04-13T02:32:27.511Z,13.30
2018-04-13T02:32:59.185Z,13.20
2018-04-13T02:33:30.829Z,13.20
2018-04-13T02:34:02.483Z,13.20
2018-04-13T02:34:34.152Z,13.20
2018-04-13T02:35:05.798Z,13.20
2018-04-13T02:35:37.474Z,13.10
2018-04-13T02:36:09.137Z,13.10
2018-04-13T02:36:40.773Z,13.00
2018-04-13T02:37:12.419Z,13.00
2018-04-13T02:37:44.050Z,13.00
2018-04-13T02:38:15.721Z,12.90
2018-04-13T02:38:47.355Z,12.90
2018-04-13T02:39:18.997Z,12.80
2018-04-13T02:39:50.639Z,12.80
2018-04-13T02:40:22.262Z,12.80
2018-04-13T02:40:53.907Z,12.90
2018-04-13T02:41:25.511Z,12.80
2018-04-13T02:41:57.132Z,12.80
2018-04-13T02:42:28.770Z,12.80
2018-04-13T02:43:00.432Z,12.80
2018-04-13T02:43:32.065Z,12.70
2018-04-13T02:44:03.704Z,12.70
2018-04-13T02:44:35.364Z,12.60
2018-04-13T02:45:07.000Z,12.70
2018-04-13T02:45:38.624Z,12.60
2018-04-13T02:46:10.250Z,12.60
2018-04-13T02:46:41.876Z,12.50
2018-04-13T02:47:13.511Z,12.60
2018-04-13T02:47:45.142Z,12.50
2018-04-13T02:48:16.804Z,12.60
2018-04-13T02:48:48.485Z,12.50
2018-04-13T02:49:20.143Z,12.50
2018-04-13T02:49:51.760Z,12.40
2018-04-13T02:50:23.391Z,12.40
2018-04-13T02:50:55.033Z,12.30
2018-04-13T02:51:26.676Z,12.30
2018-04-13T02:51:58.327Z,12.30
2018-04-13T02:52:30.002Z,12.30
2018-04-13T02:53:01.619Z,12.30
2018-04-13T02:53:33.254Z,12.20
2018-04-13T02:54:04.912Z,12.20
2018-04-13T02:54:36.566Z,12.20
2018-04-13T02:55:08.186Z,12.20
2018-04-13T02:55:39.868Z,12.10
2018-04-13T02:56:11.506Z,12.10
2018-04-13T02:56:43.158Z,12.10
2018-04-13T02:57:14.786Z,12.00
2018-04-13T02:57:46.416Z,12.00
2018-04-13T02:58:18.046Z,12.00
2018-04-13T02:58:49.692Z,12.00
2018-04-13T02:59:21.343Z,11.90
2018-04-13T02:59:52.966Z,11.90
2018-04-13T03:00:24.608Z,11.90
2018-04-13T03:00:56.252Z,12.00
2018-04-13T03:01:27.916Z,12.00
2018-04-13T03:01:59.551Z,11.90
2018-04-13T03:02:31.185Z,11.90
2018-04-13T03:03:02.835Z,11.90
2018-04-13T03:03:34.466Z,11.80
2018-04-13T03:04:06.110Z,11.80
2018-04-13T03:04:37.737Z,11.80
2018-04-13T03:05:09.383Z,11.70
2018-04-13T03:05:41.041Z,11.70
2018-04-13T03:06:12.679Z,11.70
2018-04-13T03:06:44.307Z,11.70
2018-04-13T03:07:15.955Z,11.70
2018-04-13T03:07:47.586Z,11.70
2018-04-13T03:08:19.236Z,11.70
2018-04-13T03:08:50.865Z,11.60
2018-04-13T03:09:22.504Z,11.60
2018-04-13T03:09:54.178Z,11.70
2018-04-13T03:10:25.827Z,11.60
2018-04-13T03:10:57.462Z,11.50
2018-04-13T03:11:29.096Z,11.50
2018-04-13T03:12:00.736Z,11.50
2018-04-13T03:12:32.362Z,11.50
2018-04-13T03:13:03.978Z,11.40
2018-04-13T03:13:35.610Z,11.50
2018-04-13T03:14:07.255Z,11.50
2018-04-13T03:14:38.880Z,11.40
2018-04-13T03:15:10.528Z,11.40
2018-04-13T03:15:42.160Z,11.40
2018-04-13T03:16:13.831Z,11.40
2018-04-13T03:16:45.490Z,11.40
2018-04-13T03:17:17.132Z,11.30
2018-04-13T03:17:48.791Z,11.30
2018-04-13T03:18:20.413Z,11.20
2018-04-13T03:18:52.094Z,11.20
2018-04-13T03:19:23.686Z,11.30
2018-04-13T03:19:55.337Z,11.30
2018-04-13T03:20:26.982Z,11.30
2018-04-13T03:20:58.602Z,11.10
2018-04-13T03:21:30.215Z,11.20
2018-04-13T03:22:01.857Z,11.10
2018-04-13T03:22:33.502Z,11.10
2018-04-13T03:23:05.164Z,11.20
2018-04-13T03:23:36.778Z,11.20
2018-04-13T03:24:08.420Z,11.10
2018-04-13T03:24:40.040Z,11.10
2018-04-13T03:25:11.680Z,11.10
2018-04-13T03:25:43.327Z,11.10
2018-04-13T03:26:14.984Z,11.00
2018-04-13T03:26:46.616Z,11.00
2018-04-13T03:27:18.224Z,11.00
2018-04-13T03:27:49.876Z,11.00
2018-04-13T03:28:21.508Z,11.00
2018-04-13T03:28:53.142Z,11.00
2018-04-13T03:29:24.768Z,10.90
2018-04-13T03:29:56.405Z,11.00
2018-04-13T03:30:28.036Z,11.00
2018-04-13T03:30:59.700Z,11.00
2018-04-13T03:31:31.320Z,10.90
2018-04-13T03:32:02.956Z,10.90
2018-04-13T03:32:34.590Z,10.90
2018-04-13T03:33:06.222Z,10.80
2018-04-13T03:33:37.869Z,10.90
2018-04-13T03:34:09.516Z,10.80
2018-04-13T03:34:41.132Z,10.80
2018-04-13T03:35:12.762Z,10.80
2018-04-13T03:35:44.412Z,10.80
2018-04-13T03:36:16.051Z,10.80
2018-04-13T03:36:47.679Z,10.80
2018-04-13T03:37:19.307Z,10.80
2018-04-13T03:37:50.950Z,10.80
2018-04-13T03:38:22.568Z,10.70
2018-04-13T03:38:54.198Z,10.70
2018-04-13T03:39:25.875Z,10.80
2018-04-13T03:39:57.501Z,10.70
2018-04-13T03:40:29.104Z,10.60
2018-04-13T03:41:00.727Z,10.70
2018-04-13T03:41:32.396Z,10.70
2018-04-13T03:42:04.065Z,10.70
2018-04-13T03:42:35.708Z,10.70
2018-04-13T03:43:07.331Z,10.60
2018-04-13T03:43:38.981Z,10.70
2018-04-13T03:44:10.614Z,10.60
2018-04-13T03:44:42.251Z,10.60
2018-04-13T03:45:13.883Z,10.50
2018-04-13T03:45:45.510Z,10.60
2018-04-13T03:46:17.133Z,10.50
2018-04-13T03:46:48.801Z,10.50
2018-04-13T03:47:20.428Z,10.60
2018-04-13T03:47:52.064Z,10.50
2018-04-13T03:48:23.690Z,10.50
2018-04-13T03:48:55.332Z,10.50
2018-04-13T03:49:27.055Z,10.50
2018-04-13T03:49:58.684Z,10.50
2018-04-13T03:50:30.310Z,10.50
2018-04-13T03:51:01.948Z,10.50
2018-04-13T03:51:33.604Z,10.40
2018-04-13T03:52:05.274Z,10.50
2018-04-13T03:52:36.891Z,10.50
2018-04-13T03:53:08.547Z,10.40
2018-04-13T03:53:40.200Z,10.50
2018-04-13T03:54:11.840Z,10.50
2018-04-13T03:54:43.506Z,10.40
2018-04-13T03:55:15.129Z,10.50
2018-04-13T03:55:46.761Z,10.50
2018-04-13T03:56:18.401Z,10.40
2018-04-13T03:56:50.014Z,10.40
2018-04-13T03:57:21.624Z,10.40
2018-04-13T03:57:53.246Z,10.40
2018-04-13T03:58:24.895Z,10.40
2018-04-13T03:58:56.533Z,10.40
2018-04-13T03:59:28.156Z,10.30
2018-04-13T03:59:59.799Z,10.40
2018-04-13T04:00:31.451Z,10.30
2018-04-13T04:01:03.087Z,10.40
2018-04-13T04:01:34.715Z,10.40
2018-04-13T04:02:06.372Z,10.50
2018-04-13T04:02:37.973Z,10.40
2018-04-13T04:03:09.575Z,10.40
2018-04-13T04:03:41.212Z,10.40
2018-04-13T04:04:12.865Z,10.30
2018-04-13T04:04:44.502Z,10.30
2018-04-13T04:05:16.129Z,10.30
2018-04-13T04:05:47.771Z,10.30
2018-04-13T04:06:19.403Z,10.40
2018-04-13T04:06:51.055Z,10.30
2018-04-13T04:07:22.677Z,10.20
2018-04-13T04:07:54.325Z,10.20
2018-04-13T04:08:25.953Z,10.20
2018-04-13T04:08:57.603Z,10.20
2018-04-13T04:09:29.257Z,10.20
2018-04-13T04:10:00.881Z,10.30
2018-04-13T04:10:32.553Z,10.30
2018-04-13T04:11:04.189Z,10.30
2018-04-13T04:11:35.815Z,10.20
2018-04-13T04:12:07.447Z,10.30
2018-04-13T04:12:39.103Z,10.20
2018-04-13T04:13:10.747Z,10.20
2018-04-13T04:13:42.384Z,10.20
2018-04-13T04:14:14.004Z,10.20
2018-04-13T04:14:45.638Z,10.30
2018-04-13T04:15:17.280Z,10.20
2018-04-13T04:15:48.924Z,10.20
2018-04-13T04:16:20.582Z,10.20
2018-04-13T04:16:52.227Z,10.30
2018-04-13T04:17:23.850Z,10.20
2018-04-13T04:17:55.483Z,10.20
2018-04-13T04:18:27.106Z,10.10
2018-04-13T04:18:58.748Z,10.10
2018-04-13T04:19:49.080Z,10.20
2018-04-13T04:20:39.340Z,10.10
2018-04-13T04:21:29.410Z,10.10
2018-04-13T04:22:29.253Z,10.10
2018-04-13T04:23:19.325Z,10.10
2018-04-13T04:24:09.491Z,10.10
2018-04-13T04:24:59.713Z,10.10
2018-04-13T04:26:01.555Z,10.10
2018-04-13T04:26:46.377Z,10.00
2018-04-13T04:27:18.016Z,10.00
2018-04-13T04:27:49.636Z,10.00
2018-04-13T04:28:21.282Z,10.00
2018-04-13T04:28:52.906Z,10.00
2018-04-13T04:29:24.538Z,10.00
2018-04-13T04:29:56.176Z,10.00
2018-04-13T04:30:27.786Z,9.90
2018-04-13T04:30:59.420Z,9.90
2018-04-13T04:31:31.052Z,9.90
2018-04-13T04:32:02.698Z,9.90
2018-04-13T04:32:34.350Z,9.90
2018-04-13T04:33:05.977Z,9.90
2018-04-13T04:33:37.628Z,9.90
2018-04-13T04:34:09.274Z,9.90
2018-04-13T04:34:40.898Z,9.80
2018-04-13T04:35:12.530Z,9.90
2018-04-13T04:35:44.163Z,9.90
2018-04-13T04:36:15.784Z,9.90
2018-04-13T04:36:47.408Z,9.80
2018-04-13T04:37:19.020Z,9.90
2018-04-13T04:37:50.702Z,9.90
2018-04-13T04:38:22.359Z,9.80
2018-04-13T04:38:53.991Z,9.80
2018-04-13T04:39:25.618Z,9.80
2018-04-13T04:39:57.248Z,9.80
2018-04-13T04:40:28.892Z,9.80
2018-04-13T04:41:00.537Z,9.80
2018-04-13T04:41:32.188Z,9.80
2018-04-13T04:42:03.848Z,9.80
2018-04-13T04:42:35.490Z,9.90
2018-04-13T04:43:07.116Z,9.80
2018-04-13T04:43:38.744Z,9.80
2018-04-13T04:44:10.388Z,9.80
2018-04-13T04:44:42.020Z,9.80
2018-04-13T04:45:13.909Z,9.80
2018-04-13T04:45:45.536Z,9.80
2018-04-13T04:46:17.218Z,9.90
2018-04-13T04:46:48.834Z,9.90
2018-04-13T04:47:20.468Z,9.90
2018-04-13T04:47:52.095Z,9.90
2018-04-13T04:48:57.286Z,9.90
2018-04-13T04:49:28.952Z,10.00
2018-04-13T04:50:00.584Z,10.00
2018-04-13T04:50:32.208Z,10.00
2018-04-13T04:51:03.854Z,10.10
2018-04-13T04:51:35.491Z,10.00
2018-04-13T04:52:07.123Z,10.00
2018-04-13T04:52:38.742Z,10.10
2018-04-13T04:53:10.349Z,10.00
2018-04-13T04:53:41.969Z,10.10
2018-04-13T04:54:13.614Z,10.00
2018-04-13T04:54:45.249Z,10.00
2018-04-13T04:55:16.882Z,10.10
2018-04-13T04:55:48.523Z,10.10
2018-04-13T04:56:20.157Z,10.00
2018-04-13T04:56:51.783Z,10.00
2018-04-13T04:57:23.411Z,10.00
2018-04-13T04:57:55.038Z,10.10
2018-04-13T04:58:26.706Z,10.00
2018-04-13T04:58:58.330Z,10.00
2018-04-13T04:59:29.952Z,10.00
2018-04-13T05:00:01.585Z,10.00
2018-04-13T05:00:33.233Z,10.00
2018-04-13T05:01:04.843Z,9.90
2018-04-13T05:01:36.476Z,10.00
2018-04-13T05:02:08.145Z,10.00
2018-04-13T05:02:39.760Z,10.00
2018-04-13T05:03:11.419Z,9.90
2018-04-13T05:03:43.094Z,10.00
2018-04-13T05:04:14.724Z,10.00
2018-04-13T05:04:46.370Z,10.00
2018-04-13T05:05:18.000Z,10.00
2018-04-13T05:05:49.633Z,10.00
2018-04-13T05:06:21.274Z,10.00
2018-04-13T05:06:52.910Z,10.00
2018-04-13T05:07:24.555Z,10.10
2018-04-13T05:07:56.182Z,10.00
2018-04-13T05:08:27.820Z,10.10
2018-04-13T05:08:59.479Z,10.10
2018-04-13T05:09:31.113Z,10.00
2018-04-13T05:10:02.798Z,10.00
2018-04-13T05:10:34.402Z,10.00
2018-04-13T05:11:06.050Z,10.10
2018-04-13T05:11:37.702Z,10.10
2018-04-13T05:12:09.358Z,10.10
2018-04-13T05:12:40.991Z,10.10
2018-04-13T05:13:12.612Z,10.00
2018-04-13T05:13:44.249Z,10.10
2018-04-13T05:14:15.886Z,10.20
2018-04-13T05:14:47.498Z,10.20
2018-04-13T05:15:19.118Z,10.20
2018-04-13T05:15:50.742Z,10.20
2018-04-13T05:16:22.396Z,10.20
2018-04-13T05:16:54.023Z,10.30
2018-04-13T05:17:25.642Z,10.20
2018-04-13T05:17:57.278Z,10.10
2018-04-13T05:18:28.916Z,10.20
2018-04-13T05:19:00.538Z,10.30
2018-04-13T05:19:32.207Z,10.30
2018-04-13T05:20:03.859Z,10.30
2018-04-13T05:20:35.484Z,10.30
2018-04-13T05:21:07.129Z,10.30
2018-04-13T05:21:38.772Z,10.30
2018-04-13T05:22:10.404Z,10.30
2018-04-13T05:22:42.024Z,10.30
2018-04-13T05:23:13.690Z,10.30
2018-04-13T05:23:45.332Z,10.30
2018-04-13T05:24:16.981Z,10.40
2018-04-13T05:24:48.690Z,10.40
2018-04-13T05:25:20.308Z,10.40
2018-04-13T05:25:51.940Z,10.30
2018-04-13T05:26:23.564Z,10.40
2018-04-13T05:26:55.224Z,10.40
2018-04-13T05:27:26.857Z,10.50
2018-04-13T05:27:58.520Z,10.40
2018-04-13T05:28:30.141Z,10.50
2018-04-13T05:29:01.825Z,10.50
2018-04-13T05:29:33.451Z,10.50
2018-04-13T05:30:05.127Z,10.50
2018-04-13T05:30:36.762Z,10.60
2018-04-13T05:31:08.392Z,10.50
2018-04-13T05:31:40.019Z,10.60
2018-04-13T05:32:11.639Z,10.60
2018-04-13T05:32:43.299Z,10.60
2018-04-13T05:33:14.924Z,10.60
2018-04-13T05:33:46.577Z,10.60
2018-04-13T05:34:18.198Z,10.70
2018-04-13T05:34:49.823Z,10.60
2018-04-13T05:35:21.478Z,10.60
2018-04-13T05:35:53.083Z,10.70
2018-04-13T05:36:24.713Z,10.70
2018-04-13T05:36:56.335Z,10.70
2018-04-13T05:37:27.961Z,10.80
2018-04-13T05:37:59.574Z,10.80
2018-04-13T05:38:31.209Z,10.80
2018-04-13T05:39:02.914Z,10.90
2018-04-13T05:39:34.585Z,10.90
2018-04-13T05:40:06.219Z,10.90
2018-04-13T05:40:37.876Z,10.90
2018-04-13T05:41:09.525Z,11.00
2018-04-13T05:41:41.145Z,11.10
2018-04-13T05:42:12.760Z,11.00
2018-04-13T05:42:44.397Z,11.10
2018-04-13T05:43:16.029Z,11.10
2018-04-13T05:43:47.658Z,11.10
2018-04-13T05:44:19.304Z,11.20
2018-04-13T05:44:50.935Z,11.20
2018-04-13T05:45:22.568Z,11.20
2018-04-13T05:45:54.199Z,11.30
2018-04-13T05:46:25.831Z,11.40
2018-04-13T05:46:57.449Z,11.40
2018-04-13T05:47:29.085Z,11.40
2018-04-13T05:48:00.811Z,11.50
2018-04-13T05:48:32.463Z,11.50
2018-04-13T05:49:04.110Z,11.50
2018-04-13T05:49:35.755Z,11.60
2018-04-13T05:50:07.377Z,11.60
2018-04-13T05:50:39.016Z,11.70
2018-04-13T05:51:10.680Z,11.70
2018-04-13T05:51:42.309Z,11.70
2018-04-13T05:52:13.945Z,11.70
2018-04-13T05:52:45.618Z,11.70
2018-04-13T05:53:17.273Z,11.80
2018-04-13T05:53:48.942Z,11.80
2018-04-13T05:54:20.554Z,11.80
2018-04-13T05:54:52.202Z,11.80
2018-04-13T05:55:23.870Z,11.90
2018-04-13T05:55:55.502Z,11.90
2018-04-13T05:56:27.144Z,11.90
2018-04-13T05:56:58.783Z,11.90
2018-04-13T05:57:45.332Z,11.90
2018-04-13T05:58:16.998Z,11.90
2018-04-13T05:58:48.640Z,11.90
2018-04-13T05:59:20.270Z,12.00
2018-04-13T05:59:51.898Z,12.00
2018-04-13T06:00:23.567Z,12.00
2018-04-13T06:00:55.244Z,12.00
2018-04-13T06:01:26.915Z,12.10
2018-04-13T06:01:58.550Z,12.00
2018-04-13T06:02:30.216Z,12.00
2018-04-13T06:03:01.872Z,12.10
2018-04-13T06:03:33.508Z,12.20
2018-04-13T06:04:05.174Z,12.20
2018-04-13T06:04:36.832Z,12.30
2018-04-13T06:05:08.484Z,12.20
2018-04-13T06:05:40.120Z,12.30
2018-04-13T06:06:11.752Z,12.40
2018-04-13T06:06:43.430Z,12.40
2018-04-13T06:07:15.057Z,12.40
2018-04-13T06:07:46.703Z,12.40
2018-04-13T06:08:18.332Z,12.50
2018-04-13T06:08:50.054Z,12.50
2018-04-13T06:09:21.703Z,12.50
2018-04-13T06:09:53.525Z,12.60
2018-04-13T06:10:25.165Z,12.60
2018-04-13T06:10:56.793Z,12.60
2018-04-13T06:11:28.480Z,12.80
2018-04-13T06:12:00.123Z,12.80
2018-04-13T06:12:31.733Z,12.70
2018-04-13T06:13:03.362Z,12.80
2018-04-13T06:13:34.996Z,12.90
2018-04-13T06:14:06.628Z,13.00
2018-04-13T06:14:38.261Z,12.90
2018-04-13T06:15:09.888Z,12.90
2018-04-13T06:15:41.519Z,13.00
2018-04-13T06:16:13.170Z,13.10
2018-04-13T06:16:44.808Z,13.10
2018-04-13T06:17:16.464Z,13.10
2018-04-13T06:17:48.084Z,13.20
2018-04-13T06:18:19.718Z,13.10
2018-04-13T06:18:51.363Z,13.30
2018-04-13T06:19:22.982Z,13.30
2018-04-13T06:19:54.662Z,13.20
2018-04-13T06:20:26.291Z,13.40
2018-04-13T06:20:57.934Z,13.40
2018-04-13T06:21:29.578Z,13.40
2018-04-13T06:22:01.208Z,13.50
2018-04-13T06:22:32.842Z,13.50
2018-04-13T06:23:04.467Z,13.60
2018-04-13T06:23:36.144Z,13.60
2018-04-13T06:24:07.787Z,13.60
2018-04-13T06:24:39.416Z,13.70
2018-04-13T06:25:11.040Z,13.70
2018-04-13T06:25:42.674Z,13.70
2018-04-13T06:26:14.301Z,13.80
2018-04-13T06:26:45.923Z,13.80
2018-04-13T06:27:17.548Z,13.80
2018-04-13T06:27:49.186Z,13.80
2018-04-13T06:28:20.845Z,13.90
2018-04-13T06:28:52.737Z,13.90
2018-04-13T06:29:24.388Z,13.90
2018-04-13T06:29:56.030Z,14.00
2018-04-13T06:30:27.654Z,13.90
2018-04-13T06:30:59.298Z,14.00
2018-04-13T06:31:30.930Z,14.00
2018-04-13T06:32:02.594Z,14.10
2018-04-13T06:32:34.229Z,14.10
2018-04-13T06:33:05.885Z,14.10
2018-04-13T06:33:37.510Z,14.10
2018-04-13T06:34:09.132Z,14.10
2018-04-13T06:34:40.766Z,14.20
2018-04-13T06:35:12.388Z,14.20
2018-04-13T06:35:44.004Z,14.30
2018-04-13T06:36:15.652Z,14.30
2018-04-13T06:36:47.320Z,14.30
2018-04-13T06:37:18.959Z,14.30
2018-04-13T06:37:50.590Z,14.40
2018-04-13T06:38:22.224Z,14.40
2018-04-13T06:38:53.874Z,14.60
2018-04-13T06:39:25.534Z,14.60
2018-04-13T06:39:57.196Z,14.60
2018-04-13T06:40:28.818Z,14.70
2018-04-13T06:41:00.458Z,14.70
2018-04-13T06:41:32.123Z,14.80
2018-04-13T06:42:03.759Z,14.80
2018-04-13T06:42:35.398Z,14.90
2018-04-13T06:43:07.052Z,15.00
2018-04-13T06:43:38.738Z,15.00
2018-04-13T06:44:10.338Z,15.10
2018-04-13T06:44:41.963Z,15.10
2018-04-13T06:45:13.624Z,15.10
2018-04-13T06:45:45.257Z,15.20
2018-04-13T06:46:16.898Z,15.20
2018-04-13T06:46:48.824Z,15.20
2018-04-13T06:47:20.449Z,15.30
2018-04-13T06:47:52.073Z,15.30
2018-04-13T06:48:23.728Z,15.30
2018-04-13T06:48:55.435Z,15.50
2018-04-13T06:49:27.012Z,15.50
2018-04-13T06:49:58.646Z,15.50
2018-04-13T06:50:30.290Z,15.50
2018-04-13T06:51:01.921Z,15.60
2018-04-13T06:51:33.550Z,15.70
2018-04-13T06:52:05.180Z,15.70